Hlavní strana
METAR-TAF:

METAR-TAF

Letiště :

Jasper, Georgie, Spojené státy americké

zeměpisná šířka: 34-27-12N, zeměpisná délka: 084-27-26W, výška: 468 m

Aktuální stav počasí

Zpráva byla vytvořena před 24 minutami, v 02:55 UTC
Bezvětří
Teplota 7°C
Vlhkost vzduchu 100%
Tlak 1021 hPa
Viditelnost: 3.2 km
Polojasno ve výšce 300 ft
Zataženo ve výšce 1000 ft
slabé mrholení

METAR: KJZP 190255Z AUTO 00000KT 2SM -DZ SCT003 OVC010 07/07 A3014 RMK AO2 T00670067

Čas: 22:19 (03:19 UTC)


TAF: chybějící

Stav a předpovědi počasí z více než 4 000 letišť (zprávy METAR a TAF).

Červené a žluté tečky na mapě představují dostupné meteorologické stanice.

Když kurzor umístíte na tečku, zobrazí se název stanice.

Pak kliknutím zobrazíte stav a předpověď počasí.

Chcete-li změnit mapu, kliknutím na zelené tlačítko se znaménkem +mapu přiblížíte, kliknutím na zelené tlačítko se znaménkem – mapu oddálíte a kliknutím na zelené šipky přejdete na sousední mapy.


METAR-TAF: